TAF KSBP
KSBP 090539Z 0906/1006 VRB03KT P6SM OVC018 FM091000 VRB03KT P6SM VCSH OVC010 FM091500 33008KT 3SM -RA BR OVC009 FM092000 30015KT P6SM SCT025 FM100300 32008KT P6SM SCT250=
METAR KSBP
WC KSBP
WS KSBP
WV KSBP